createdAt,value
2023-05-21T00:00:28.754Z,579.00
2023-05-21T00:01:28.381Z,559.00
2023-05-21T00:02:28.469Z,574.00
2023-05-21T00:03:28.556Z,589.00
2023-05-21T00:04:28.420Z,588.00
2023-05-21T00:05:28.455Z,579.00
2023-05-21T00:06:28.635Z,587.00
2023-05-21T00:07:28.481Z,576.00
2023-05-21T00:08:28.461Z,579.00
2023-05-21T00:09:28.457Z,574.00
2023-05-21T00:10:28.465Z,575.00
2023-05-21T00:11:28.492Z,571.00
2023-05-21T00:12:28.472Z,587.00
2023-05-21T00:13:28.492Z,594.00
2023-05-21T00:14:28.492Z,586.00
2023-05-21T00:15:28.506Z,568.00
2023-05-21T00:16:28.541Z,577.00
2023-05-21T00:17:28.595Z,591.00
2023-05-21T00:18:28.517Z,591.00
2023-05-21T00:19:28.620Z,600.00
2023-05-21T00:20:28.550Z,601.00
2023-05-21T00:21:28.587Z,606.00
2023-05-21T00:22:28.583Z,598.00
2023-05-21T00:23:28.616Z,571.00
2023-05-21T00:24:28.613Z,579.00
2023-05-21T00:25:28.659Z,587.00
2023-05-21T00:26:28.662Z,593.00
2023-05-21T00:27:28.770Z,601.00
2023-05-21T00:28:28.908Z,609.00
2023-05-21T00:29:29.036Z,605.00
2023-05-21T00:30:29.068Z,601.00
2023-05-21T00:31:29.163Z,592.00
2023-05-21T00:32:29.141Z,598.00
2023-05-21T00:33:29.176Z,573.00
2023-05-21T00:34:29.209Z,573.00
2023-05-21T00:35:29.343Z,582.00
2023-05-21T00:36:29.470Z,575.00
2023-05-21T00:37:29.588Z,590.00
2023-05-21T00:38:29.663Z,604.00
2023-05-21T00:39:29.666Z,620.00
2023-05-21T00:40:29.700Z,615.00
2023-05-21T00:41:29.731Z,594.00
2023-05-21T00:42:29.808Z,594.00
2023-05-21T00:43:29.794Z,594.00
2023-05-21T00:44:29.825Z,597.00
2023-05-21T00:45:29.990Z,596.00
2023-05-21T00:46:29.906Z,601.00
2023-05-21T00:47:29.893Z,611.00
2023-05-21T00:48:29.807Z,625.00
2023-05-21T00:49:29.839Z,628.00
2023-05-21T00:50:29.844Z,626.00
2023-05-21T00:51:29.833Z,614.00
2023-05-21T00:52:29.857Z,630.00
2023-05-21T00:53:29.853Z,634.00
2023-05-21T00:54:29.859Z,615.00
2023-05-21T00:55:29.852Z,616.00
2023-05-21T00:56:29.855Z,611.00
2023-05-21T00:57:29.884Z,620.00
2023-05-21T00:58:29.860Z,620.00
2023-05-21T00:59:29.879Z,606.00
2023-05-21T01:00:29.948Z,607.00
2023-05-21T01:01:29.938Z,617.00
2023-05-21T01:02:29.990Z,608.00
2023-05-21T01:03:30.036Z,593.00
2023-05-21T01:04:30.013Z,587.00
2023-05-21T01:05:30.041Z,590.00
2023-05-21T01:06:30.087Z,605.00
2023-05-21T01:07:30.117Z,585.00
2023-05-21T01:08:30.193Z,587.00
2023-05-21T01:09:30.186Z,607.00
2023-05-21T01:10:30.224Z,620.00
2023-05-21T01:11:30.254Z,621.00
2023-05-21T01:12:30.293Z,634.00
2023-05-21T01:13:30.320Z,636.00
2023-05-21T01:14:30.362Z,637.00
2023-05-21T01:15:30.400Z,644.00
2023-05-21T01:16:30.435Z,652.00
2023-05-21T01:17:30.491Z,651.00
2023-05-21T01:18:30.529Z,650.00
2023-05-21T01:19:30.576Z,647.00
2023-05-21T01:20:30.583Z,642.00
2023-05-21T01:21:30.610Z,632.00
2023-05-21T01:22:30.651Z,629.00
2023-05-21T01:23:30.688Z,623.00
2023-05-21T01:24:30.729Z,613.00
2023-05-21T01:25:30.762Z,622.00
2023-05-21T01:26:30.827Z,625.00
2023-05-21T01:27:30.828Z,624.00
2023-05-21T01:28:30.861Z,637.00
2023-05-21T01:29:30.972Z,654.00
2023-05-21T01:30:30.965Z,655.00
2023-05-21T01:31:31.006Z,648.00
2023-05-21T01:32:31.093Z,657.00
2023-05-21T01:33:31.096Z,638.00
2023-05-21T01:34:31.109Z,630.00
2023-05-21T01:35:31.173Z,644.00
2023-05-21T01:36:31.170Z,642.00
2023-05-21T01:37:31.223Z,648.00
2023-05-21T01:38:31.251Z,640.00
2023-05-21T01:39:31.286Z,647.00
2023-05-21T01:40:31.351Z,642.00
2023-05-21T01:41:31.406Z,641.00
2023-05-21T01:42:31.431Z,637.00
2023-05-21T01:43:31.451Z,630.00
2023-05-21T01:44:31.502Z,618.00
2023-05-21T01:45:31.540Z,620.00
2023-05-21T01:46:31.588Z,636.00
2023-05-21T01:47:31.589Z,636.00
2023-05-21T01:48:31.595Z,622.00
2023-05-21T01:49:31.584Z,618.00
2023-05-21T01:50:31.589Z,610.00
2023-05-21T01:51:31.589Z,598.00
2023-05-21T01:52:31.591Z,598.00
2023-05-21T01:53:31.591Z,610.00
2023-05-21T01:54:31.590Z,610.00
2023-05-21T01:55:31.593Z,613.00
2023-05-21T01:56:31.622Z,629.00
2023-05-21T01:57:31.638Z,641.00
2023-05-21T01:58:31.600Z,631.00
2023-05-21T01:59:31.630Z,628.00
2023-05-21T02:00:31.656Z,615.00
2023-05-21T02:01:31.666Z,611.00
2023-05-21T02:02:31.674Z,608.00
2023-05-21T02:03:31.844Z,621.00
2023-05-21T02:04:31.730Z,616.00
2023-05-21T02:05:31.773Z,612.00
2023-05-21T02:06:31.819Z,610.00
2023-05-21T02:07:31.854Z,604.00
2023-05-21T02:08:31.886Z,607.00
2023-05-21T02:09:31.935Z,613.00
2023-05-21T02:10:31.984Z,610.00
2023-05-21T02:11:32.035Z,601.00
2023-05-21T02:12:32.099Z,611.00
2023-05-21T02:13:32.061Z,625.00
2023-05-21T02:14:32.148Z,616.00
2023-05-21T02:15:32.211Z,607.00
2023-05-21T02:16:32.226Z,607.00
2023-05-21T02:17:32.257Z,621.00
2023-05-21T02:18:32.302Z,630.00
2023-05-21T02:19:32.496Z,635.00
2023-05-21T02:20:32.370Z,635.00
2023-05-21T02:21:32.437Z,645.00
2023-05-21T02:22:32.439Z,647.00
2023-05-21T02:23:32.457Z,646.00
2023-05-21T02:24:32.510Z,623.00
2023-05-21T02:25:32.861Z,600.00
2023-05-21T02:26:32.607Z,615.00
2023-05-21T02:27:32.641Z,621.00
2023-05-21T02:28:32.689Z,635.00
2023-05-21T02:29:32.714Z,634.00
2023-05-21T02:30:32.792Z,622.00
2023-05-21T02:31:32.805Z,611.00
2023-05-21T02:32:32.877Z,593.00
2023-05-21T02:33:32.908Z,609.00
2023-05-21T02:34:32.913Z,626.00
2023-05-21T02:35:33.052Z,623.00
2023-05-21T02:36:33.060Z,606.00
2023-05-21T02:37:33.068Z,611.00
2023-05-21T02:38:33.107Z,599.00
2023-05-21T02:39:33.105Z,598.00
2023-05-21T02:40:33.187Z,606.00
2023-05-21T02:41:33.189Z,594.00
2023-05-21T02:42:33.226Z,610.00
2023-05-21T02:43:33.294Z,610.00
2023-05-21T02:44:33.363Z,613.00
2023-05-21T02:45:33.382Z,621.00
2023-05-21T02:46:33.400Z,642.00
2023-05-21T02:47:33.441Z,638.00
2023-05-21T02:48:33.479Z,630.00
2023-05-21T02:49:33.506Z,610.00
2023-05-21T02:50:33.531Z,613.00
2023-05-21T02:51:33.591Z,616.00
2023-05-21T02:52:33.721Z,608.00
2023-05-21T02:53:33.651Z,611.00
2023-05-21T02:54:33.682Z,597.00
2023-05-21T02:55:33.917Z,618.00
2023-05-21T02:56:33.776Z,621.00
2023-05-21T02:57:33.817Z,629.00
2023-05-21T02:58:33.857Z,630.00
2023-05-21T02:59:33.882Z,638.00
2023-05-21T03:00:33.949Z,609.00
2023-05-21T03:01:33.962Z,600.00
2023-05-21T03:02:34.056Z,619.00
2023-05-21T03:03:34.212Z,620.00
2023-05-21T03:04:34.096Z,619.00
2023-05-21T03:05:34.242Z,612.00
2023-05-21T03:06:34.164Z,624.00
2023-05-21T03:07:34.232Z,596.00
2023-05-21T03:08:34.262Z,611.00
2023-05-21T03:09:34.276Z,620.00
2023-05-21T03:10:34.344Z,625.00
2023-05-21T03:11:34.385Z,633.00
2023-05-21T03:12:34.453Z,630.00
2023-05-21T03:13:34.538Z,628.00
2023-05-21T03:14:34.522Z,623.00
2023-05-21T03:15:34.616Z,620.00
2023-05-21T03:16:34.711Z,612.00
2023-05-21T03:17:34.665Z,598.00
2023-05-21T03:18:34.664Z,584.00
2023-05-21T03:19:34.708Z,585.00
2023-05-21T03:20:34.756Z,602.00
2023-05-21T03:21:34.796Z,598.00
2023-05-21T03:22:34.831Z,611.00
2023-05-21T03:23:34.888Z,603.00
2023-05-21T03:24:34.920Z,600.00
2023-05-21T03:25:35.176Z,616.00
2023-05-21T03:26:35.012Z,615.00
2023-05-21T03:27:35.060Z,614.00
2023-05-21T03:28:35.128Z,590.00
2023-05-21T03:29:35.196Z,587.00
2023-05-21T03:30:35.201Z,580.00
2023-05-21T03:31:35.304Z,592.00
2023-05-21T03:32:35.306Z,603.00
2023-05-21T03:33:35.337Z,590.00
2023-05-21T03:34:35.378Z,607.00
2023-05-21T03:35:35.598Z,618.00
2023-05-21T03:36:35.452Z,621.00
2023-05-21T03:37:35.511Z,614.00
2023-05-21T03:38:37.060Z,602.00
2023-05-21T03:39:35.602Z,586.00
2023-05-21T03:40:35.652Z,607.00
2023-05-21T03:41:35.688Z,599.00
2023-05-21T03:42:35.727Z,606.00
2023-05-21T03:43:35.787Z,624.00
2023-05-21T03:44:35.842Z,634.00
2023-05-21T03:45:36.089Z,640.00
2023-05-21T03:46:35.938Z,641.00
2023-05-21T03:47:35.887Z,641.00
2023-05-21T03:48:35.874Z,642.00
2023-05-21T03:49:35.872Z,642.00
2023-05-21T03:50:35.911Z,637.00
2023-05-21T03:51:35.881Z,652.00
2023-05-21T03:52:35.885Z,652.00
2023-05-21T03:53:35.876Z,662.00
2023-05-21T03:54:35.902Z,659.00
2023-05-21T03:55:36.048Z,663.00
2023-05-21T03:56:35.889Z,647.00
2023-05-21T03:57:35.898Z,617.00
2023-05-21T03:58:35.926Z,632.00
2023-05-21T03:59:35.985Z,638.00
2023-05-21T04:00:36.026Z,631.00
2023-05-21T04:01:36.074Z,641.00
2023-05-21T04:02:36.156Z,636.00
2023-05-21T04:03:37.870Z,617.00
2023-05-21T04:04:36.195Z,626.00
2023-05-21T04:05:36.299Z,628.00
2023-05-21T04:06:36.166Z,635.00
2023-05-21T04:07:36.139Z,630.00
2023-05-21T04:08:36.143Z,609.00
2023-05-21T04:09:36.777Z,623.00
2023-05-21T04:10:36.185Z,623.00
2023-05-21T04:11:36.171Z,634.00
2023-05-21T04:12:36.177Z,647.00
2023-05-21T04:13:36.188Z,646.00
2023-05-21T04:14:36.169Z,645.00
2023-05-21T04:15:36.355Z,633.00
2023-05-21T04:16:36.259Z,633.00
2023-05-21T04:17:36.232Z,634.00
2023-05-21T04:18:36.186Z,627.00
2023-05-21T04:19:36.242Z,643.00
2023-05-21T04:20:36.218Z,652.00
2023-05-21T04:21:36.184Z,646.00
2023-05-21T04:22:36.181Z,650.00
2023-05-21T04:23:36.167Z,653.00
2023-05-21T04:24:36.156Z,652.00
2023-05-21T04:25:36.322Z,639.00
2023-05-21T04:26:36.194Z,649.00
2023-05-21T04:27:36.169Z,656.00
2023-05-21T04:28:36.194Z,652.00
2023-05-21T04:29:36.236Z,649.00
2023-05-21T04:30:36.288Z,653.00
2023-05-21T04:31:36.420Z,660.00
2023-05-21T04:32:36.444Z,639.00
2023-05-21T04:33:36.368Z,640.00
2023-05-21T04:34:36.377Z,641.00
2023-05-21T04:35:36.665Z,647.00
2023-05-21T04:36:36.379Z,656.00
2023-05-21T04:37:36.406Z,666.00
2023-05-21T04:38:36.403Z,665.00
2023-05-21T04:39:36.401Z,654.00
2023-05-21T04:40:36.688Z,651.00
2023-05-21T04:41:36.371Z,633.00
2023-05-21T04:42:36.383Z,641.00
2023-05-21T04:43:36.389Z,652.00
2023-05-21T04:44:36.362Z,667.00
2023-05-21T04:45:36.673Z,649.00
2023-05-21T04:46:36.464Z,657.00
2023-05-21T04:47:36.530Z,659.00
2023-05-21T04:48:36.540Z,653.00
2023-05-21T04:49:36.568Z,663.00
2023-05-21T04:50:36.634Z,686.00
2023-05-21T04:51:36.648Z,704.00
2023-05-21T04:52:36.699Z,680.00
2023-05-21T04:53:36.744Z,683.00
2023-05-21T04:54:36.767Z,663.00
2023-05-21T04:55:37.049Z,700.00
2023-05-21T04:56:36.879Z,663.00
2023-05-21T04:57:36.900Z,695.00
2023-05-21T04:58:36.935Z,691.00
2023-05-21T04:59:36.975Z,704.00
2023-05-21T05:00:37.123Z,722.00
2023-05-21T05:01:37.038Z,683.00
2023-05-21T05:02:37.135Z,682.00
2023-05-21T05:03:37.203Z,664.00
2023-05-21T05:04:37.164Z,657.00
2023-05-21T05:05:37.306Z,659.00
2023-05-21T05:06:37.235Z,649.00
2023-05-21T05:07:37.284Z,648.00
2023-05-21T05:08:37.315Z,653.00
2023-05-21T05:09:37.347Z,659.00
2023-05-21T05:10:37.386Z,663.00
2023-05-21T05:11:37.431Z,656.00
2023-05-21T05:12:37.442Z,663.00
2023-05-21T05:13:37.521Z,662.00
2023-05-21T05:14:37.526Z,660.00
2023-05-21T05:15:37.714Z,664.00
2023-05-21T05:16:37.663Z,652.00
2023-05-21T05:17:37.679Z,652.00
2023-05-21T05:18:37.681Z,645.00
2023-05-21T05:19:37.712Z,638.00
2023-05-21T05:20:37.754Z,643.00
2023-05-21T05:21:37.783Z,642.00
2023-05-21T05:22:37.835Z,646.00
2023-05-21T05:23:37.823Z,649.00
2023-05-21T05:24:37.862Z,648.00
2023-05-21T05:25:38.072Z,640.00
2023-05-21T05:26:37.952Z,638.00
2023-05-21T05:27:38.764Z,625.00
2023-05-21T05:28:37.965Z,612.00
2023-05-21T05:29:37.978Z,605.00
2023-05-21T05:30:38.085Z,592.00
2023-05-21T05:31:38.008Z,584.00
2023-05-21T05:32:38.091Z,595.00
2023-05-21T05:33:38.002Z,585.00
2023-05-21T05:34:38.023Z,592.00
2023-05-21T05:35:38.172Z,595.00
2023-05-21T05:36:38.007Z,600.00
2023-05-21T05:37:38.011Z,592.00
2023-05-21T05:38:38.008Z,590.00
2023-05-21T05:39:38.009Z,601.00
2023-05-21T05:40:38.111Z,595.00
2023-05-21T05:41:38.043Z,587.00
2023-05-21T05:42:38.063Z,588.00
2023-05-21T05:43:38.030Z,591.00
2023-05-21T05:44:38.047Z,588.00
2023-05-21T05:45:38.406Z,583.00
2023-05-21T05:46:38.246Z,592.00
2023-05-21T05:47:38.191Z,586.00
2023-05-21T05:48:38.160Z,589.00
2023-05-21T05:49:38.191Z,575.00
2023-05-21T05:50:38.232Z,574.00
2023-05-21T05:51:38.270Z,570.00
2023-05-21T05:52:38.334Z,563.00
2023-05-21T05:53:38.369Z,559.00
2023-05-21T05:54:38.387Z,562.00
2023-05-21T05:55:38.688Z,537.00
2023-05-21T05:56:38.466Z,532.00
2023-05-21T05:57:38.489Z,539.00
2023-05-21T05:58:38.518Z,547.00
2023-05-21T05:59:38.552Z,549.00
2023-05-21T06:00:38.621Z,541.00
2023-05-21T06:01:38.611Z,535.00
2023-05-21T06:02:38.754Z,538.00
2023-05-21T06:03:38.875Z,516.00
2023-05-21T06:04:38.719Z,521.00
2023-05-21T06:05:39.084Z,515.00
2023-05-21T06:06:38.769Z,507.00
2023-05-21T06:07:38.800Z,508.00
2023-05-21T06:08:38.839Z,504.00
2023-05-21T06:09:38.888Z,502.00
2023-05-21T06:10:38.908Z,500.00
2023-05-21T06:11:38.908Z,511.00
2023-05-21T06:12:38.933Z,500.00
2023-05-21T06:13:38.982Z,500.00
2023-05-21T06:14:39.012Z,498.00
2023-05-21T06:15:39.148Z,506.00
2023-05-21T06:16:39.195Z,504.00
2023-05-21T06:17:39.148Z,511.00
2023-05-21T06:18:39.128Z,510.00
2023-05-21T06:19:39.180Z,516.00
2023-05-21T06:20:39.166Z,511.00
2023-05-21T06:21:39.192Z,519.00
2023-05-21T06:22:39.240Z,524.00
2023-05-21T06:23:39.294Z,525.00
2023-05-21T06:24:39.268Z,539.00
2023-05-21T06:25:39.442Z,532.00
2023-05-21T06:26:39.274Z,536.00
2023-05-21T06:27:39.346Z,530.00
2023-05-21T06:28:39.367Z,535.00
2023-05-21T06:29:39.347Z,530.00
2023-05-21T06:30:39.409Z,533.00
2023-05-21T06:31:39.420Z,537.00
2023-05-21T06:32:39.616Z,540.00
2023-05-21T06:33:39.659Z,544.00
2023-05-21T06:34:39.530Z,542.00
2023-05-21T06:35:39.551Z,546.00
2023-05-21T06:36:39.596Z,544.00
2023-05-21T06:37:39.596Z,551.00
2023-05-21T06:38:39.605Z,544.00
2023-05-21T06:39:39.633Z,559.00
2023-05-21T06:40:39.637Z,560.00
2023-05-21T06:41:39.645Z,571.00
2023-05-21T06:42:39.738Z,575.00
2023-05-21T06:43:39.744Z,571.00
2023-05-21T06:44:39.751Z,575.00
2023-05-21T06:45:39.993Z,572.00
2023-05-21T06:46:39.781Z,572.00
2023-05-21T06:47:39.819Z,582.00
2023-05-21T06:48:39.801Z,568.00
2023-05-21T06:49:39.815Z,571.00
2023-05-21T06:50:39.801Z,571.00
2023-05-21T06:51:39.792Z,567.00
2023-05-21T06:52:39.817Z,573.00
2023-05-21T06:53:39.807Z,574.00
2023-05-21T06:54:39.866Z,581.00
2023-05-21T06:55:39.829Z,588.00
2023-05-21T06:56:39.864Z,582.00
2023-05-21T06:57:39.806Z,577.00
2023-05-21T06:58:39.810Z,586.00
2023-05-21T06:59:39.807Z,577.00
2023-05-21T07:00:39.807Z,587.00
2023-05-21T07:01:39.884Z,592.00
2023-05-21T07:02:39.879Z,593.00
2023-05-21T07:03:39.855Z,598.00
2023-05-21T07:04:39.938Z,601.00
2023-05-21T07:05:40.076Z,599.00
2023-05-21T07:06:39.811Z,592.00
2023-05-21T07:07:39.811Z,601.00
2023-05-21T07:08:39.812Z,600.00
2023-05-21T07:09:39.825Z,610.00
2023-05-21T07:10:39.824Z,613.00
2023-05-21T07:11:39.819Z,608.00
2023-05-21T07:12:39.829Z,602.00
2023-05-21T07:13:39.834Z,606.00
2023-05-21T07:14:39.815Z,613.00
2023-05-21T07:15:39.832Z,619.00
2023-05-21T07:16:39.874Z,622.00
2023-05-21T07:17:39.842Z,622.00
2023-05-21T07:18:39.830Z,620.00
2023-05-21T07:19:39.870Z,618.00
2023-05-21T07:20:39.845Z,618.00
2023-05-21T07:21:39.839Z,622.00
2023-05-21T07:22:39.871Z,618.00
2023-05-21T07:23:39.865Z,616.00
2023-05-21T07:24:39.849Z,623.00
2023-05-21T07:25:39.914Z,624.00
2023-05-21T07:26:39.901Z,628.00
2023-05-21T07:27:39.927Z,624.00
2023-05-21T07:28:39.925Z,635.00
2023-05-21T07:29:39.993Z,640.00
2023-05-21T07:30:40.026Z,617.00
2023-05-21T07:31:40.162Z,632.00
2023-05-21T07:32:40.162Z,630.00
2023-05-21T07:33:40.175Z,632.00
2023-05-21T07:34:40.205Z,640.00
2023-05-21T07:35:40.268Z,638.00
2023-05-21T07:36:40.295Z,657.00
2023-05-21T07:37:40.346Z,664.00
2023-05-21T07:38:40.382Z,672.00
2023-05-21T07:39:40.449Z,660.00
2023-05-21T07:40:40.556Z,659.00
2023-05-21T07:41:40.495Z,665.00
2023-05-21T07:42:40.518Z,688.00
2023-05-21T07:43:40.578Z,676.00
2023-05-21T07:44:40.623Z,679.00
2023-05-21T07:45:40.670Z,693.00
2023-05-21T07:46:40.758Z,691.00
2023-05-21T07:47:40.768Z,694.00
2023-05-21T07:48:40.773Z,679.00
2023-05-21T07:49:40.824Z,696.00
2023-05-21T07:50:40.844Z,712.00
2023-05-21T07:51:40.904Z,690.00
2023-05-21T07:52:40.950Z,717.00
2023-05-21T07:53:40.984Z,720.00
2023-05-21T07:54:40.989Z,735.00
2023-05-21T07:55:40.989Z,704.00
2023-05-21T07:56:41.031Z,739.00
2023-05-21T07:57:41.111Z,740.00
2023-05-21T07:58:41.209Z,738.00
2023-05-21T07:59:41.168Z,735.00
2023-05-21T08:00:41.205Z,738.00
2023-05-21T08:01:41.283Z,741.00
2023-05-21T08:02:41.379Z,738.00
2023-05-21T08:03:41.355Z,756.00
2023-05-21T08:04:41.596Z,751.00
2023-05-21T08:05:41.382Z,747.00
2023-05-21T08:06:41.398Z,749.00
2023-05-21T08:07:41.429Z,764.00
2023-05-21T08:08:41.416Z,762.00
2023-05-21T08:09:41.463Z,776.00
2023-05-21T08:10:41.514Z,766.00
2023-05-21T08:11:41.560Z,768.00
2023-05-21T08:12:41.564Z,774.00
2023-05-21T08:13:41.601Z,776.00
2023-05-21T08:14:41.636Z,782.00
2023-05-21T08:15:41.678Z,780.00
2023-05-21T08:16:41.759Z,796.00
2023-05-21T08:17:41.892Z,802.00
2023-05-21T08:18:41.908Z,772.00
2023-05-21T08:19:41.891Z,785.00
2023-05-21T08:20:41.965Z,769.00
2023-05-21T08:21:41.981Z,791.00
2023-05-21T08:22:42.034Z,815.00
2023-05-21T08:23:42.141Z,793.00
2023-05-21T08:24:42.162Z,807.00
2023-05-21T08:25:42.214Z,819.00
2023-05-21T08:26:42.281Z,811.00
2023-05-21T08:27:42.312Z,827.00
2023-05-21T08:28:42.372Z,834.00
2023-05-21T08:29:42.414Z,829.00
2023-05-21T08:30:42.952Z,837.00
2023-05-21T08:31:42.550Z,856.00
2023-05-21T08:32:42.624Z,815.00
2023-05-21T08:33:42.665Z,842.00
2023-05-21T08:34:42.712Z,831.00
2023-05-21T08:35:42.966Z,839.00
2023-05-21T08:36:42.831Z,832.00
2023-05-21T08:37:42.866Z,832.00
2023-05-21T08:38:42.906Z,821.00
2023-05-21T08:39:42.976Z,838.00
2023-05-21T08:40:43.039Z,850.00
2023-05-21T08:41:43.085Z,848.00
2023-05-21T08:42:43.166Z,854.00
2023-05-21T08:43:43.211Z,840.00
2023-05-21T08:44:43.260Z,867.00
2023-05-21T08:45:43.333Z,893.00
2023-05-21T08:46:43.368Z,880.00
2023-05-21T08:47:43.487Z,861.00
2023-05-21T08:48:43.487Z,869.00
2023-05-21T08:49:43.534Z,847.00
2023-05-21T08:50:43.615Z,844.00
2023-05-21T08:51:43.624Z,833.00
2023-05-21T08:52:43.700Z,832.00
2023-05-21T08:53:43.768Z,807.00
2023-05-21T08:54:43.816Z,809.00
2023-05-21T08:55:43.897Z,793.00
2023-05-21T08:56:43.945Z,796.00
2023-05-21T08:57:43.992Z,793.00
2023-05-21T08:58:44.052Z,797.00
2023-05-21T08:59:44.098Z,799.00
2023-05-21T09:00:44.169Z,778.00
2023-05-21T09:01:44.238Z,775.00
2023-05-21T09:02:44.357Z,758.00
2023-05-21T09:03:44.331Z,755.00
2023-05-21T09:04:44.385Z,743.00
2023-05-21T09:05:44.390Z,737.00
2023-05-21T09:06:44.446Z,710.00
2023-05-21T09:07:44.465Z,697.00
2023-05-21T09:08:44.537Z,663.00
2023-05-21T09:09:44.591Z,659.00
2023-05-21T09:10:44.660Z,653.00
2023-05-21T09:11:44.707Z,653.00
2023-05-21T09:12:44.747Z,654.00
2023-05-21T09:13:44.779Z,645.00
2023-05-21T09:14:44.892Z,643.00
2023-05-21T09:15:44.891Z,628.00
2023-05-21T09:16:44.960Z,622.00
2023-05-21T09:17:44.999Z,619.00
2023-05-21T09:18:45.095Z,614.00
2023-05-21T09:19:45.077Z,606.00
2023-05-21T09:20:45.109Z,597.00
2023-05-21T09:21:45.155Z,598.00
2023-05-21T09:22:45.206Z,596.00
2023-05-21T09:23:45.243Z,580.00
2023-05-21T09:24:45.299Z,588.00
2023-05-21T09:25:45.353Z,592.00
2023-05-21T09:26:45.387Z,585.00
2023-05-21T09:27:45.418Z,575.00
2023-05-21T09:28:45.486Z,562.00
2023-05-21T09:29:45.528Z,551.00
2023-05-21T09:30:45.585Z,554.00
2023-05-21T09:31:45.750Z,549.00
2023-05-21T09:32:45.734Z,520.00
2023-05-21T09:33:45.705Z,522.00
2023-05-21T09:34:45.775Z,517.00
2023-05-21T09:35:45.822Z,509.00
2023-05-21T09:36:45.854Z,505.00
2023-05-21T09:37:45.910Z,502.00
2023-05-21T09:38:45.990Z,498.00
2023-05-21T09:39:45.971Z,504.00
2023-05-21T09:40:46.047Z,504.00
2023-05-21T09:41:46.058Z,500.00
2023-05-21T09:42:46.102Z,500.00
2023-05-21T09:43:46.133Z,504.00
2023-05-21T09:44:46.188Z,504.00
2023-05-21T09:45:46.234Z,510.00
2023-05-21T09:46:46.310Z,511.00
2023-05-21T09:47:46.390Z,509.00
2023-05-21T09:48:46.349Z,511.00
2023-05-21T09:49:46.420Z,502.00
2023-05-21T09:50:46.454Z,501.00
2023-05-21T09:51:46.486Z,498.00
2023-05-21T09:52:46.523Z,493.00
2023-05-21T09:53:46.560Z,506.00
2023-05-21T09:54:46.593Z,505.00
2023-05-21T09:55:46.698Z,506.00
2023-05-21T09:56:46.699Z,515.00
2023-05-21T09:57:48.129Z,528.00
2023-05-21T09:58:46.749Z,527.00
2023-05-21T09:59:46.704Z,504.00
2023-05-21T10:00:46.709Z,502.00
2023-05-21T10:01:46.741Z,503.00
2023-05-21T10:02:46.766Z,499.00
2023-05-21T10:03:48.170Z,507.00
2023-05-21T10:04:46.782Z,508.00
2023-05-21T10:05:46.627Z,510.00
2023-05-21T10:06:46.596Z,511.00
2023-05-21T10:07:46.584Z,509.00
2023-05-21T10:08:46.552Z,518.00
2023-05-21T10:09:46.542Z,511.00
2023-05-21T10:10:46.534Z,500.00
2023-05-21T10:11:46.506Z,505.00
2023-05-21T10:12:46.490Z,501.00
2023-05-21T10:13:46.474Z,505.00
2023-05-21T10:14:46.460Z,523.00
2023-05-21T10:15:47.071Z,520.00
2023-05-21T10:16:46.451Z,509.00
2023-05-21T10:17:46.452Z,514.00
2023-05-21T10:18:46.442Z,522.00
2023-05-21T10:19:46.377Z,510.00
2023-05-21T10:20:46.364Z,504.00
2023-05-21T10:21:46.339Z,504.00
2023-05-21T10:22:46.330Z,499.00
2023-05-21T10:23:46.300Z,502.00
2023-05-21T10:24:46.304Z,511.00
2023-05-21T10:25:46.284Z,516.00
2023-05-21T10:26:46.270Z,505.00
2023-05-21T10:27:46.270Z,500.00
2023-05-21T10:28:46.305Z,506.00
2023-05-21T10:29:46.340Z,512.00
2023-05-21T10:30:46.387Z,519.00
2023-05-21T10:31:46.460Z,514.00
2023-05-21T10:32:46.685Z,505.00
2023-05-21T10:33:46.508Z,502.00
2023-05-21T10:34:46.542Z,512.00
2023-05-21T10:35:46.599Z,514.00
2023-05-21T10:36:46.626Z,526.00
2023-05-21T10:37:46.666Z,537.00
2023-05-21T10:38:46.697Z,541.00
2023-05-21T10:39:46.752Z,535.00
2023-05-21T10:40:46.780Z,525.00
2023-05-21T10:41:46.819Z,530.00
2023-05-21T10:42:46.854Z,522.00
2023-05-21T10:43:46.924Z,511.00
2023-05-21T10:44:46.939Z,516.00
2023-05-21T10:45:46.998Z,507.00
2023-05-21T10:46:47.018Z,508.00
2023-05-21T10:47:47.142Z,505.00
2023-05-21T10:48:47.097Z,512.00
2023-05-21T10:49:47.124Z,520.00
2023-05-21T10:50:47.163Z,517.00
2023-05-21T10:51:47.247Z,542.00
2023-05-21T10:52:47.233Z,540.00
2023-05-21T10:53:47.270Z,540.00
2023-05-21T10:54:47.305Z,527.00
2023-05-21T10:55:47.359Z,530.00
2023-05-21T10:56:47.393Z,524.00
2023-05-21T10:57:47.406Z,523.00
2023-05-21T10:58:47.449Z,517.00
2023-05-21T10:59:47.551Z,512.00
2023-05-21T11:00:47.605Z,503.00
2023-05-21T11:01:47.664Z,502.00
2023-05-21T11:02:47.693Z,507.00
2023-05-21T11:03:47.666Z,502.00
2023-05-21T11:04:47.665Z,500.00
2023-05-21T11:05:47.709Z,501.00
2023-05-21T11:06:47.801Z,504.00
2023-05-21T11:07:47.780Z,503.00
2023-05-21T11:08:47.817Z,507.00
2023-05-21T11:09:47.838Z,501.00
2023-05-21T11:10:47.883Z,512.00
2023-05-21T11:11:47.918Z,500.00
2023-05-21T11:12:47.951Z,503.00
2023-05-21T11:13:47.988Z,505.00
2023-05-21T11:14:48.023Z,503.00
2023-05-21T11:15:48.063Z,502.00
2023-05-21T11:16:48.148Z,503.00
2023-05-21T11:17:48.185Z,508.00
2023-05-21T11:18:48.237Z,508.00
2023-05-21T11:19:48.167Z,501.00
2023-05-21T11:20:48.171Z,487.00
2023-05-21T11:21:48.132Z,495.00
2023-05-21T11:22:48.137Z,501.00
2023-05-21T11:23:48.089Z,502.00
2023-05-21T11:24:50.502Z,500.00
2023-05-21T11:25:48.071Z,507.00
2023-05-21T11:26:48.059Z,508.00
2023-05-21T11:27:48.035Z,505.00
2023-05-21T11:28:48.021Z,500.00
2023-05-21T11:29:47.989Z,504.00
2023-05-21T11:30:48.035Z,513.00
2023-05-21T11:31:48.010Z,500.00
2023-05-21T11:32:47.948Z,516.00
2023-05-21T11:33:47.934Z,514.00
2023-05-21T11:34:47.938Z,510.00
2023-05-21T11:35:47.888Z,500.00
2023-05-21T11:36:47.882Z,511.00
2023-05-21T11:37:47.859Z,505.00
2023-05-21T11:38:47.841Z,519.00
2023-05-21T11:39:47.819Z,514.00
2023-05-21T11:40:47.795Z,505.00
2023-05-21T11:41:47.780Z,512.00
2023-05-21T11:42:47.769Z,523.00
2023-05-21T11:43:47.749Z,531.00
2023-05-21T11:44:47.727Z,536.00
2023-05-21T11:45:47.716Z,546.00
2023-05-21T11:46:47.724Z,556.00
2023-05-21T11:47:47.666Z,552.00
2023-05-21T11:48:47.665Z,550.00
2023-05-21T11:49:47.621Z,544.00
2023-05-21T11:50:47.612Z,541.00
2023-05-21T11:51:47.608Z,550.00
2023-05-21T11:52:47.565Z,546.00
2023-05-21T11:53:47.553Z,544.00
2023-05-21T11:54:47.545Z,546.00
2023-05-21T11:55:47.498Z,543.00
2023-05-21T11:56:47.481Z,546.00
2023-05-21T11:57:47.475Z,557.00
2023-05-21T11:58:47.447Z,564.00
2023-05-21T11:59:47.430Z,571.00
2023-05-21T12:00:47.432Z,578.00
2023-05-21T12:01:47.403Z,565.00
2023-05-21T12:02:47.535Z,547.00
2023-05-21T12:03:47.449Z,529.00
2023-05-21T12:04:47.359Z,539.00
2023-05-21T12:05:47.384Z,534.00
2023-05-21T12:06:47.377Z,532.00
2023-05-21T12:07:47.426Z,527.00
2023-05-21T12:08:47.470Z,538.00
2023-05-21T12:09:47.523Z,533.00
2023-05-21T12:10:47.558Z,528.00
2023-05-21T12:11:47.591Z,523.00
2023-05-21T12:12:55.720Z,508.00
2023-05-21T12:13:48.688Z,509.00
2023-05-21T12:14:47.612Z,510.00
2023-05-21T12:15:47.628Z,513.00
2023-05-21T12:16:47.646Z,513.00
2023-05-21T12:17:47.589Z,530.00
2023-05-21T12:18:47.602Z,541.00
2023-05-21T12:19:47.538Z,535.00
2023-05-21T12:20:47.533Z,531.00
2023-05-21T12:21:47.509Z,534.00
2023-05-21T12:22:47.474Z,534.00
2023-05-21T12:23:47.466Z,536.00
2023-05-21T12:24:47.449Z,535.00
2023-05-21T12:25:47.451Z,536.00
2023-05-21T12:26:47.434Z,547.00
2023-05-21T12:27:47.409Z,546.00
2023-05-21T12:28:47.403Z,536.00